AUA7 LOWW-VTBS
Flight info
| Callsign | AUA7 |
|---|---|
| Flight time | N/A |
| Altitude | 35000 |
| Route | ASPI2C/29 ADAMA DCT VEDER DCT ALAMU DCT BUDOP DCT IRLOX DCT OPT DCT LUGEB DCT UDROS DCT BAMUP/N0476F370 DCT ROLIN N644 ODILI DCT BARAD M747 SULEL N449 DUKAN B449 RANAH L750 VELDT/N0473F390 L750 MERUN G452 LKN R460 BBN P646 JJS Z12 DOPID P646 IBITA/N0480F410 P646 PTN N895 BETNO G463 TARED DCT WILLA WILLA1C |
| Aircraft | B772/H-SDE2E3FGHIJ5LORVWXY/LB1D1 |
Departure
| Time | 2026-04-25 22:34 |
|---|---|
| Airport | Vienna International Airport (LOWW) |
Arrival
| Time | N/A |
|---|---|
| Airport | Suvarnabhumi Airport (VTBS) |
| Time | Latitude | Longitude | Altitude | Speed | Heading |
|---|---|---|---|---|---|
| 2026-04-25 21:55 | 48.11926 | 16.56721 | 613 ft | 0 kts | 206° |
| 2026-04-25 21:56 | 48.11924 | 16.56720 | 613 ft | 0 kts | 206° |
| 2026-04-25 22:22 | 48.11937 | 16.56729 | 631 ft | 4 kts | 202° |
| 2026-04-25 22:22 | 48.11963 | 16.56742 | 628 ft | 4 kts | 188° |
| 2026-04-25 22:23 | 48.11989 | 16.56743 | 628 ft | 4 kts | 168° |
| 2026-04-25 22:23 | 48.12012 | 16.56728 | 628 ft | 4 kts | 126° |
| 2026-04-25 22:23 | 48.12016 | 16.56719 | 628 ft | 0 kts | 116° |
| 2026-04-25 22:26 | 48.12010 | 16.56736 | 625 ft | 1 kts | 116° |
| 2026-04-25 22:27 | 48.11965 | 16.56876 | 620 ft | 29 kts | 116° |
| 2026-04-25 22:27 | 48.11902 | 16.57068 | 626 ft | 16 kts | 116° |
| 2026-04-25 22:27 | 48.11855 | 16.57213 | 618 ft | 16 kts | 116° |
| 2026-04-25 22:27 | 48.11833 | 16.57281 | 624 ft | 0 kts | 116° |
| 2026-04-25 22:28 | 48.11825 | 16.57305 | 624 ft | 7 kts | 118° |
| 2026-04-25 22:28 | 48.11765 | 16.57365 | 625 ft | 14 kts | 163° |
| 2026-04-25 22:28 | 48.11642 | 16.57417 | 625 ft | 22 kts | 165° |
| 2026-04-25 22:28 | 48.11507 | 16.57465 | 621 ft | 7 kts | 185° |
| 2026-04-25 22:29 | 48.11435 | 16.57416 | 624 ft | 18 kts | 206° |
| 2026-04-25 22:29 | 48.11293 | 16.57317 | 623 ft | 19 kts | 206° |
| 2026-04-25 22:29 | 48.11248 | 16.57284 | 623 ft | 0 kts | 206° |
| 2026-04-25 22:30 | 48.11221 | 16.57264 | 624 ft | 11 kts | 206° |
| 2026-04-25 22:30 | 48.11172 | 16.57228 | 621 ft | 3 kts | 206° |
| 2026-04-25 22:30 | 48.11161 | 16.57221 | 623 ft | 0 kts | 206° |
| 2026-04-25 22:33 | 48.11159 | 16.57219 | 623 ft | 2 kts | 206° |
| 2026-04-25 22:33 | 48.11134 | 16.57201 | 624 ft | 6 kts | 206° |
| 2026-04-25 22:33 | 48.11072 | 16.57134 | 626 ft | 8 kts | 239° |
| 2026-04-25 22:33 | 48.11071 | 16.57055 | 628 ft | 9 kts | 292° |
| 2026-04-25 22:34 | 48.11185 | 16.56701 | 628 ft | 78 kts | 296° |
| 2026-04-25 22:34 | 48.11548 | 16.55584 | 629 ft | 155 kts | 295° |
| 2026-04-25 22:34 | 48.12114 | 16.53900 | 998 ft | 192 kts | 296° |
| 2026-04-25 22:34 | 48.12596 | 16.52113 | 2159 ft | 178 kts | 282° |
| 2026-04-25 22:35 | 48.12389 | 16.50169 | 2933 ft | 207 kts | 249° |
| 2026-04-25 22:35 | 48.11230 | 16.48617 | 3206 ft | 245 kts | 207° |
| 2026-04-25 22:35 | 48.09373 | 16.48222 | 3773 ft | 262 kts | 185° |
| 2026-04-25 22:35 | 48.07510 | 16.48273 | 4234 ft | 278 kts | 183° |
| 2026-04-25 22:36 | 48.04524 | 16.49309 | 5065 ft | 291 kts | 147° |
| 2026-04-25 22:36 | 48.01703 | 16.52143 | 5777 ft | 293 kts | 149° |
| 2026-04-25 22:36 | 47.96149 | 16.59586 | 6467 ft | 286 kts | 97° |
| 2026-04-25 22:36 | 47.98132 | 16.70962 | 7043 ft | 289 kts | 68° |
| 2026-04-25 22:37 | 47.99712 | 16.77954 | 7029 ft | 290 kts | 74° |
| 2026-04-25 22:37 | 47.99744 | 16.78157 | 7029 ft | 291 kts | 77° |
| 2026-04-25 22:37 | 48.00031 | 16.87646 | 6932 ft | 295 kts | 90° |
| 2026-04-25 22:37 | 47.99660 | 16.99887 | 8296 ft | 298 kts | 90° |
| 2026-04-25 22:38 | 47.99450 | 17.08213 | 10092 ft | 309 kts | 90° |
| 2026-04-25 22:38 | 47.99445 | 17.08413 | 10119 ft | 309 kts | 90° |
| 2026-04-25 22:38 | 47.99440 | 17.08614 | 10147 ft | 310 kts | 89° |
| 2026-04-25 22:38 | 47.99435 | 17.08808 | 10171 ft | 311 kts | 89° |
| 2026-04-25 22:39 | 47.99362 | 17.11699 | 10479 ft | 324 kts | 90° |
| 2026-04-25 22:39 | 47.99282 | 17.15182 | 10635 ft | 346 kts | 90° |
| 2026-04-25 22:40 | 47.99193 | 17.18884 | 10806 ft | 368 kts | 90° |
| 2026-04-25 22:40 | 47.99095 | 17.22813 | 11072 ft | 387 kts | 90° |
| 2026-04-25 22:40 | 47.98990 | 17.26892 | 11586 ft | 398 kts | 90° |
| 2026-04-25 22:40 | 47.98861 | 17.31061 | 12235 ft | 405 kts | 93° |
| 2026-04-25 22:41 | 47.98459 | 17.35269 | 12904 ft | 412 kts | 101° |
| 2026-04-25 22:41 | 47.97718 | 17.39426 | 13625 ft | 417 kts | 108° |
| 2026-04-25 22:41 | 47.96814 | 17.43491 | 14261 ft | 420 kts | 108° |
| 2026-04-25 22:41 | 47.95874 | 17.47650 | 14878 ft | 424 kts | 108° |
| 2026-04-25 22:42 | 47.94929 | 17.51831 | 15510 ft | 427 kts | 108° |
| 2026-04-25 22:42 | 47.93982 | 17.56052 | 16120 ft | 431 kts | 108° |
| 2026-04-25 22:42 | 47.93030 | 17.60320 | 16709 ft | 435 kts | 108° |
| 2026-04-25 22:42 | 47.92075 | 17.64623 | 17265 ft | 439 kts | 108° |
| 2026-04-25 22:43 | 47.91110 | 17.68972 | 17811 ft | 444 kts | 108° |
| 2026-04-25 22:43 | 47.90136 | 17.73356 | 18348 ft | 447 kts | 108° |
| 2026-04-25 22:43 | 47.89153 | 17.77771 | 18845 ft | 450 kts | 108° |
| 2026-04-25 22:43 | 47.88162 | 17.82212 | 19335 ft | 453 kts | 108° |
| 2026-04-25 22:44 | 47.87164 | 17.86678 | 19824 ft | 455 kts | 108° |
| 2026-04-25 22:44 | 47.86159 | 17.91164 | 20287 ft | 458 kts | 108° |
| 2026-04-25 22:44 | 47.85144 | 17.95681 | 20739 ft | 461 kts | 108° |
| 2026-04-25 22:44 | 47.84058 | 18.00064 | 21159 ft | 464 kts | 114° |
| 2026-04-25 22:45 | 47.82744 | 18.04341 | 21586 ft | 466 kts | 116° |
| 2026-04-25 22:45 | 47.81824 | 18.07238 | 21874 ft | 469 kts | 116° |
| 2026-04-25 22:45 | 47.80416 | 18.11643 | 22318 ft | 471 kts | 116° |
| 2026-04-25 22:45 | 47.79011 | 18.16066 | 22775 ft | 474 kts | 116° |
| 2026-04-25 22:46 | 47.77609 | 18.20519 | 23003 ft | 479 kts | 116° |
| 2026-04-25 22:46 | 47.76201 | 18.25016 | 22974 ft | 479 kts | 116° |
| 2026-04-25 22:46 | 47.74804 | 18.29481 | 22971 ft | 475 kts | 116° |
| 2026-04-25 22:46 | 47.73406 | 18.33936 | 22973 ft | 475 kts | 116° |
| 2026-04-25 22:47 | 47.72003 | 18.38414 | 23173 ft | 480 kts | 116° |
| 2026-04-25 22:47 | 47.70592 | 18.42927 | 23568 ft | 483 kts | 115° |
| 2026-04-25 22:47 | 47.69174 | 18.47466 | 23958 ft | 485 kts | 115° |
| 2026-04-25 22:47 | 47.67753 | 18.52009 | 24324 ft | 487 kts | 115° |
| 2026-04-25 22:48 | 47.66321 | 18.56576 | 24664 ft | 489 kts | 115° |
| 2026-04-25 22:48 | 47.64880 | 18.61162 | 25006 ft | 492 kts | 116° |
| 2026-04-25 22:48 | 47.63426 | 18.65783 | 25321 ft | 495 kts | 116° |
| 2026-04-25 22:48 | 47.61962 | 18.70423 | 25649 ft | 498 kts | 116° |
| 2026-04-25 22:49 | 47.60488 | 18.75087 | 25988 ft | 501 kts | 115° |
| 2026-04-25 22:49 | 47.58999 | 18.79790 | 26218 ft | 506 kts | 115° |
| 2026-04-25 22:49 | 47.57497 | 18.84524 | 26519 ft | 509 kts | 115° |
| 2026-04-25 22:49 | 47.55987 | 18.89274 | 26869 ft | 511 kts | 115° |
| 2026-04-25 22:50 | 47.54466 | 18.94050 | 27206 ft | 513 kts | 116° |
| 2026-04-25 22:50 | 47.52940 | 18.98834 | 27509 ft | 515 kts | 116° |
| 2026-04-25 22:50 | 47.51450 | 19.03496 | 27793 ft | 518 kts | 116° |
| 2026-04-25 22:50 | 47.49902 | 19.08331 | 28086 ft | 521 kts | 116° |
| 2026-04-25 22:51 | 47.48344 | 19.13186 | 28386 ft | 523 kts | 116° |
| 2026-04-25 22:51 | 47.46782 | 19.18043 | 28739 ft | 523 kts | 116° |
| 2026-04-25 22:51 | 47.45217 | 19.22903 | 29024 ft | 525 kts | 117° |
| 2026-04-25 22:51 | 47.43641 | 19.27788 | 29285 ft | 527 kts | 117° |
| 2026-04-25 22:52 | 47.42056 | 19.32687 | 29540 ft | 529 kts | 117° |
| 2026-04-25 22:52 | 47.40468 | 19.37590 | 29779 ft | 531 kts | 117° |
| 2026-04-25 22:52 | 47.38863 | 19.42534 | 30000 ft | 533 kts | 117° |
| 2026-04-25 22:52 | 47.37801 | 19.45800 | 30119 ft | 534 kts | 117° |
| 2026-04-25 22:53 | 47.35638 | 19.52440 | 30286 ft | 539 kts | 117° |
| 2026-04-25 22:53 | 47.34014 | 19.57415 | 30508 ft | 539 kts | 117° |
| 2026-04-25 22:53 | 47.32382 | 19.62406 | 30827 ft | 537 kts | 117° |
| 2026-04-25 22:53 | 47.30758 | 19.67364 | 31135 ft | 536 kts | 117° |
| 2026-04-25 22:54 | 47.29156 | 19.72245 | 31400 ft | 536 kts | 117° |
| 2026-04-25 22:54 | 47.27531 | 19.77185 | 31650 ft | 536 kts | 117° |
| 2026-04-25 22:54 | 47.25903 | 19.82123 | 31907 ft | 536 kts | 117° |
| 2026-04-25 22:54 | 47.24275 | 19.87055 | 32176 ft | 536 kts | 117° |
| 2026-04-25 22:55 | 47.22643 | 19.91985 | 32451 ft | 535 kts | 117° |
| 2026-04-25 22:55 | 47.21013 | 19.96903 | 32720 ft | 535 kts | 117° |
| 2026-04-25 22:55 | 47.19429 | 20.01670 | 32979 ft | 535 kts | 117° |
| 2026-04-25 22:55 | 47.17795 | 20.06584 | 33256 ft | 535 kts | 117° |
| 2026-04-25 22:56 | 47.16156 | 20.11499 | 33524 ft | 534 kts | 117° |
| 2026-04-25 22:56 | 47.14520 | 20.16395 | 33778 ft | 534 kts | 117° |
| 2026-04-25 22:56 | 47.12879 | 20.21301 | 33995 ft | 535 kts | 117° |
| 2026-04-25 22:56 | 47.11234 | 20.26206 | 34200 ft | 535 kts | 117° |
| 2026-04-25 22:57 | 47.09591 | 20.31098 | 34444 ft | 534 kts | 117° |
| 2026-04-25 22:57 | 47.07944 | 20.35992 | 34719 ft | 533 kts | 117° |
| 2026-04-25 22:57 | 47.06300 | 20.40867 | 34867 ft | 534 kts | 117° |
| 2026-04-25 22:57 | 47.04646 | 20.45761 | 34915 ft | 537 kts | 117° |
| 2026-04-25 22:58 | 47.01339 | 20.55524 | 34926 ft | 536 kts | 118° |
| 2026-04-25 22:58 | 46.98049 | 20.65203 | 34945 ft | 530 kts | 118° |
| 2026-04-25 22:59 | 46.94752 | 20.74863 | 34943 ft | 529 kts | 118° |
| 2026-04-25 22:59 | 46.91451 | 20.84499 | 34939 ft | 529 kts | 118° |
| 2026-04-25 23:00 | 46.88144 | 20.94117 | 34952 ft | 530 kts | 118° |
| 2026-04-25 23:00 | 46.84875 | 21.03590 | 34954 ft | 531 kts | 118° |
| 2026-04-25 23:01 | 46.81532 | 21.13244 | 34953 ft | 532 kts | 118° |
| 2026-04-25 23:01 | 46.78181 | 21.22886 | 34945 ft | 533 kts | 118° |
| 2026-04-25 23:02 | 46.74833 | 21.32483 | 34957 ft | 534 kts | 118° |
| 2026-04-25 23:02 | 46.71458 | 21.42127 | 34957 ft | 534 kts | 118° |
| 2026-04-25 23:03 | 46.68066 | 21.51761 | 34959 ft | 534 kts | 119° |
| 2026-04-25 23:03 | 46.64535 | 21.61293 | 34964 ft | 534 kts | 120° |
| 2026-04-25 23:04 | 46.61552 | 21.69154 | 34973 ft | 534 kts | 120° |
| 2026-04-25 23:04 | 46.57361 | 21.80209 | 34972 ft | 534 kts | 120° |
| 2026-04-25 23:05 | 46.53792 | 21.89656 | 34979 ft | 533 kts | 120° |
| 2026-04-25 23:05 | 46.50218 | 21.99102 | 34986 ft | 533 kts | 120° |
| 2026-04-25 23:06 | 46.46693 | 22.08385 | 34980 ft | 532 kts | 120° |
| 2026-04-25 23:06 | 46.43115 | 22.17766 | 34988 ft | 531 kts | 120° |
| 2026-04-25 23:07 | 46.39534 | 22.27123 | 35006 ft | 530 kts | 120° |
| 2026-04-25 23:07 | 46.35948 | 22.36461 | 34990 ft | 530 kts | 120° |
| 2026-04-25 23:08 | 46.32383 | 22.45715 | 34999 ft | 529 kts | 121° |
| 2026-04-25 23:08 | 46.28785 | 22.55019 | 35013 ft | 529 kts | 121° |
| 2026-04-25 23:09 | 46.25181 | 22.64312 | 35000 ft | 530 kts | 121° |
| 2026-04-25 23:09 | 46.21568 | 22.73592 | 35015 ft | 530 kts | 121° |
| 2026-04-25 23:10 | 46.17945 | 22.82869 | 35019 ft | 530 kts | 121° |
| 2026-04-25 23:10 | 46.14306 | 22.92154 | 35003 ft | 531 kts | 121° |
| 2026-04-25 23:11 | 46.10721 | 23.01271 | 35001 ft | 531 kts | 121° |
| 2026-04-25 23:11 | 46.07068 | 23.10531 | 34999 ft | 532 kts | 121° |
| 2026-04-25 23:12 | 46.03407 | 23.19780 | 35001 ft | 531 kts | 121° |
| 2026-04-25 23:12 | 45.99842 | 23.28754 | 35004 ft | 529 kts | 121° |
| 2026-04-25 23:13 | 45.96187 | 23.37925 | 35001 ft | 528 kts | 121° |
| 2026-04-25 23:13 | 45.92531 | 23.47072 | 35002 ft | 527 kts | 121° |
| 2026-04-25 23:14 | 45.88872 | 23.56192 | 34993 ft | 527 kts | 121° |
| 2026-04-25 23:14 | 45.85204 | 23.65306 | 34994 ft | 527 kts | 121° |
| 2026-04-25 23:15 | 45.81553 | 23.74350 | 34991 ft | 527 kts | 121° |
| 2026-04-25 23:15 | 45.77866 | 23.83451 | 34979 ft | 528 kts | 121° |
| 2026-04-25 23:16 | 45.74170 | 23.92545 | 34976 ft | 528 kts | 121° |
| 2026-04-25 23:16 | 45.70518 | 24.01503 | 34973 ft | 529 kts | 121° |
| 2026-04-25 23:17 | 45.66803 | 24.10589 | 35008 ft | 529 kts | 121° |
| 2026-04-25 23:17 | 45.63071 | 24.19681 | 35013 ft | 530 kts | 121° |
| 2026-04-25 23:18 | 45.61181 | 24.24208 | 35133 ft | 530 kts | 122° |
| 2026-04-25 23:18 | 45.59277 | 24.28714 | 35428 ft | 528 kts | 122° |
| 2026-04-25 23:18 | 45.57374 | 24.33194 | 35716 ft | 526 kts | 122° |
| 2026-04-25 23:18 | 45.55476 | 24.37651 | 35986 ft | 524 kts | 122° |
| 2026-04-25 23:19 | 45.53591 | 24.42079 | 36326 ft | 521 kts | 122° |
| 2026-04-25 23:19 | 45.51713 | 24.46491 | 36545 ft | 521 kts | 122° |
| 2026-04-25 23:19 | 45.49830 | 24.50913 | 36731 ft | 521 kts | 122° |
| 2026-04-25 23:19 | 45.47952 | 24.55322 | 36925 ft | 521 kts | 122° |
| 2026-04-25 23:20 | 45.44171 | 24.64176 | 37019 ft | 523 kts | 122° |
| 2026-04-25 23:20 | 45.40380 | 24.73029 | 36998 ft | 523 kts | 122° |
| 2026-04-25 23:21 | 45.36590 | 24.81853 | 37008 ft | 522 kts | 122° |
| 2026-04-25 23:21 | 45.32803 | 24.90640 | 37012 ft | 520 kts | 122° |
| 2026-04-25 23:22 | 45.29041 | 24.99339 | 37008 ft | 520 kts | 122° |
| 2026-04-25 23:23 | 45.23414 | 25.12303 | 37009 ft | 519 kts | 122° |
| 2026-04-25 23:23 | 45.19614 | 25.21023 | 36993 ft | 519 kts | 122° |
| 2026-04-25 23:24 | 45.15813 | 25.29721 | 36996 ft | 519 kts | 122° |
| 2026-04-25 23:24 | 45.12622 | 25.37002 | 37014 ft | 519 kts | 122° |
| 2026-04-25 23:25 | 45.08803 | 25.45690 | 36992 ft | 519 kts | 122° |
| 2026-04-25 23:25 | 45.04981 | 25.54361 | 36992 ft | 519 kts | 122° |
| 2026-04-25 23:26 | 45.01152 | 25.63020 | 36985 ft | 518 kts | 122° |
| 2026-04-25 23:26 | 44.97331 | 25.71634 | 36981 ft | 518 kts | 122° |
| 2026-04-25 23:27 | 44.93491 | 25.80265 | 36973 ft | 518 kts | 122° |
| 2026-04-25 23:27 | 44.89656 | 25.88858 | 36970 ft | 518 kts | 122° |
| 2026-04-25 23:28 | 44.85812 | 25.97448 | 36969 ft | 518 kts | 122° |
| 2026-04-25 23:28 | 44.82048 | 26.05832 | 36966 ft | 518 kts | 122° |
| 2026-04-25 23:29 | 44.78193 | 26.14393 | 36965 ft | 517 kts | 122° |
| 2026-04-25 23:29 | 44.74331 | 26.22946 | 36960 ft | 517 kts | 122° |
| 2026-04-25 23:30 | 44.70466 | 26.31479 | 36956 ft | 517 kts | 122° |
| 2026-04-25 23:30 | 44.66593 | 26.40007 | 36956 ft | 517 kts | 122° |
| 2026-04-25 23:31 | 44.62722 | 26.48506 | 36940 ft | 517 kts | 122° |
| 2026-04-25 23:31 | 44.58844 | 26.57003 | 36955 ft | 516 kts | 122° |
| 2026-04-25 23:32 | 44.55107 | 26.65594 | 36950 ft | 515 kts | 120° |
| 2026-04-25 23:32 | 44.51454 | 26.74227 | 36951 ft | 515 kts | 120° |
| 2026-04-25 23:33 | 44.47809 | 26.82780 | 36953 ft | 514 kts | 121° |
| 2026-04-25 23:33 | 44.44116 | 26.91355 | 36953 ft | 514 kts | 121° |
| 2026-04-25 23:34 | 44.40407 | 26.99920 | 36953 ft | 514 kts | 121° |
| 2026-04-25 23:34 | 44.36751 | 27.08338 | 36955 ft | 514 kts | 121° |
| 2026-04-25 23:35 | 44.33035 | 27.16873 | 36953 ft | 514 kts | 121° |
| 2026-04-25 23:35 | 44.29309 | 27.25408 | 36959 ft | 514 kts | 121° |
| 2026-04-25 23:36 | 44.25579 | 27.33927 | 36962 ft | 514 kts | 121° |
| 2026-04-25 23:36 | 44.21841 | 27.42438 | 36958 ft | 514 kts | 121° |
| 2026-04-25 23:37 | 44.18095 | 27.50941 | 36962 ft | 513 kts | 121° |
| 2026-04-25 23:37 | 44.14360 | 27.59396 | 36958 ft | 512 kts | 121° |
| 2026-04-25 23:38 | 44.10623 | 27.67829 | 36958 ft | 511 kts | 121° |
| 2026-04-25 23:38 | 44.06889 | 27.76232 | 36969 ft | 510 kts | 121° |
| 2026-04-25 23:39 | 44.03181 | 27.84553 | 36966 ft | 509 kts | 121° |
| 2026-04-25 23:39 | 43.99453 | 27.92895 | 36969 ft | 507 kts | 121° |
| 2026-04-25 23:40 | 43.95782 | 28.01085 | 36967 ft | 506 kts | 121° |
| 2026-04-25 23:40 | 43.92057 | 28.09373 | 36966 ft | 505 kts | 121° |
| 2026-04-25 23:41 | 43.88335 | 28.17629 | 36965 ft | 504 kts | 122° |
| 2026-04-25 23:41 | 43.84618 | 28.25853 | 36963 ft | 503 kts | 122° |
| 2026-04-25 23:42 | 43.80901 | 28.34054 | 36978 ft | 502 kts | 122° |
| 2026-04-25 23:42 | 43.77175 | 28.42254 | 36973 ft | 502 kts | 122° |
| 2026-04-25 23:43 | 43.73470 | 28.50383 | 36977 ft | 502 kts | 122° |
| 2026-04-25 23:43 | 43.69729 | 28.58526 | 36982 ft | 501 kts | 122° |
| 2026-04-25 23:44 | 43.65977 | 28.66648 | 36986 ft | 502 kts | 122° |
| 2026-04-25 23:44 | 43.62221 | 28.74763 | 36986 ft | 502 kts | 122° |
| 2026-04-25 23:45 | 43.58461 | 28.82868 | 36988 ft | 501 kts | 122° |
| 2026-04-25 23:45 | 43.54688 | 28.90986 | 36988 ft | 501 kts | 122° |
| 2026-04-25 23:46 | 43.50921 | 28.99068 | 36990 ft | 501 kts | 122° |
| 2026-04-25 23:46 | 43.47199 | 29.07028 | 36991 ft | 501 kts | 122° |
| 2026-04-25 23:47 | 43.43421 | 29.15088 | 36994 ft | 501 kts | 122° |
| 2026-04-25 23:47 | 43.39637 | 29.23137 | 36993 ft | 500 kts | 122° |
| 2026-04-25 23:48 | 43.35850 | 29.31171 | 36997 ft | 500 kts | 122° |
| 2026-04-25 23:48 | 43.32067 | 29.39175 | 36998 ft | 499 kts | 122° |
| 2026-04-25 23:49 | 43.28280 | 29.47166 | 36996 ft | 499 kts | 122° |
| 2026-04-25 23:49 | 43.24489 | 29.55143 | 37001 ft | 498 kts | 122° |
| 2026-04-25 23:50 | 43.20699 | 29.63097 | 37003 ft | 498 kts | 122° |
| 2026-04-25 23:50 | 43.16896 | 29.71055 | 37009 ft | 498 kts | 122° |
| 2026-04-25 23:51 | 43.13098 | 29.78984 | 37006 ft | 498 kts | 123° |
| 2026-04-25 23:51 | 43.09288 | 29.86914 | 37000 ft | 497 kts | 122° |
| 2026-04-25 23:52 | 43.05506 | 29.94767 | 37011 ft | 497 kts | 123° |
| 2026-04-25 23:52 | 43.01755 | 30.02536 | 37003 ft | 497 kts | 123° |
| 2026-04-25 23:53 | 42.97924 | 30.10448 | 37003 ft | 496 kts | 123° |
| 2026-04-25 23:53 | 42.94111 | 30.18301 | 37010 ft | 496 kts | 123° |
| 2026-04-25 23:54 | 42.90294 | 30.26144 | 37004 ft | 495 kts | 123° |
| 2026-04-25 23:54 | 42.86477 | 30.33965 | 37006 ft | 495 kts | 123° |
| 2026-04-25 23:55 | 42.82655 | 30.41778 | 37004 ft | 495 kts | 123° |
| 2026-04-25 23:55 | 42.78831 | 30.49578 | 37006 ft | 495 kts | 123° |
| 2026-04-25 23:56 | 42.75255 | 30.57567 | 36993 ft | 494 kts | 113° |
| 2026-04-25 23:56 | 42.73123 | 30.66360 | 37006 ft | 491 kts | 99° |
| 2026-04-25 23:57 | 42.72176 | 30.75549 | 37019 ft | 491 kts | 96° |